sensor_id;sensor_type;location;lat;lon;timestamp;P1;durP1;ratioP1;P2;durP2;ratioP2
6209;SDS011;3138;52.550;13.148;2023-10-13T00:02:02;15.03;;;3.90;;
6209;SDS011;3138;52.550;13.148;2023-10-13T00:04:30;13.03;;;4.53;;
6209;SDS011;3138;52.550;13.148;2023-10-13T00:06:58;20.30;;;4.43;;
6209;SDS011;3138;52.550;13.148;2023-10-13T00:09:27;7.67;;;3.50;;
6209;SDS011;3138;52.550;13.148;2023-10-13T00:11:57;19.13;;;4.83;;
6209;SDS011;3138;52.550;13.148;2023-10-13T00:14:26;17.77;;;4.40;;
6209;SDS011;3138;52.550;13.148;2023-10-13T00:16:58;17.70;;;5.70;;
6209;SDS011;3138;52.550;13.148;2023-10-13T00:19:30;15.80;;;4.00;;
6209;SDS011;3138;52.550;13.148;2023-10-13T00:22:07;19.33;;;5.73;;
6209;SDS011;3138;52.550;13.148;2023-10-13T00:24:38;10.90;;;5.07;;
6209;SDS011;3138;52.550;13.148;2023-10-13T00:27:10;9.10;;;4.50;;
6209;SDS011;3138;52.550;13.148;2023-10-13T00:29:54;23.90;;;8.17;;
6209;SDS011;3138;52.550;13.148;2023-10-13T00:32:41;14.47;;;7.10;;
6209;SDS011;3138;52.550;13.148;2023-10-13T00:35:09;12.60;;;7.53;;
6209;SDS011;3138;52.550;13.148;2023-10-13T00:37:39;25.00;;;7.80;;
6209;SDS011;3138;52.550;13.148;2023-10-13T00:40:09;17.13;;;8.03;;
6209;SDS011;3138;52.550;13.148;2023-10-13T00:42:51;22.27;;;7.50;;
6209;SDS011;3138;52.550;13.148;2023-10-13T00:45:22;36.33;;;9.27;;
6209;SDS011;3138;52.550;13.148;2023-10-13T00:47:48;24.50;;;8.03;;
6209;SDS011;3138;52.550;13.148;2023-10-13T00:50:21;22.50;;;7.13;;
6209;SDS011;3138;52.550;13.148;2023-10-13T00:52:49;13.17;;;6.30;;
6209;SDS011;3138;52.550;13.148;2023-10-13T00:55:17;24.43;;;6.23;;
6209;SDS011;3138;52.550;13.148;2023-10-13T00:57:48;20.67;;;6.63;;
6209;SDS011;3138;52.550;13.148;2023-10-13T01:00:20;11.47;;;5.37;;
6209;SDS011;3138;52.550;13.148;2023-10-13T01:02:50;29.33;;;6.13;;
6209;SDS011;3138;52.550;13.148;2023-10-13T01:05:21;13.43;;;6.43;;
6209;SDS011;3138;52.550;13.148;2023-10-13T01:07:48;23.33;;;6.30;;
6209;SDS011;3138;52.550;13.148;2023-10-13T01:10:18;19.30;;;7.30;;
6209;SDS011;3138;52.550;13.148;2023-10-13T01:12:45;30.70;;;6.77;;
6209;SDS011;3138;52.550;13.148;2023-10-13T01:15:12;31.97;;;6.30;;
6209;SDS011;3138;52.550;13.148;2023-10-13T01:17:45;16.63;;;5.90;;
6209;SDS011;3138;52.550;13.148;2023-10-13T01:20:11;21.43;;;7.50;;
6209;SDS011;3138;52.550;13.148;2023-10-13T01:22:44;16.03;;;6.87;;
6209;SDS011;3138;52.550;13.148;2023-10-13T01:25:16;21.90;;;6.40;;
6209;SDS011;3138;52.550;13.148;2023-10-13T01:27:44;16.43;;;6.37;;
6209;SDS011;3138;52.550;13.148;2023-10-13T01:30:14;13.20;;;5.97;;
6209;SDS011;3138;52.550;13.148;2023-10-13T01:32:48;17.70;;;6.43;;
6209;SDS011;3138;52.550;13.148;2023-10-13T01:35:16;16.67;;;6.37;;
6209;SDS011;3138;52.550;13.148;2023-10-13T01:37:44;13.57;;;6.40;;
6209;SDS011;3138;52.550;13.148;2023-10-13T01:40:11;16.90;;;6.90;;
6209;SDS011;3138;52.550;13.148;2023-10-13T01:42:39;17.73;;;6.13;;
6209;SDS011;3138;52.550;13.148;2023-10-13T01:45:06;12.10;;;6.57;;
6209;SDS011;3138;52.550;13.148;2023-10-13T01:47:32;23.20;;;6.63;;
6209;SDS011;3138;52.550;13.148;2023-10-13T01:49:59;11.33;;;6.17;;
6209;SDS011;3138;52.550;13.148;2023-10-13T01:52:38;22.93;;;6.63;;
6209;SDS011;3138;52.550;13.148;2023-10-13T01:55:07;21.83;;;6.87;;
6209;SDS011;3138;52.550;13.148;2023-10-13T01:57:36;15.23;;;6.80;;
6209;SDS011;3138;52.550;13.148;2023-10-13T02:00:05;15.03;;;7.70;;
6209;SDS011;3138;52.550;13.148;2023-10-13T02:02:44;19.93;;;9.10;;
6209;SDS011;3138;52.550;13.148;2023-10-13T02:05:11;14.07;;;8.43;;
6209;SDS011;3138;52.550;13.148;2023-10-13T02:07:37;14.17;;;8.17;;
6209;SDS011;3138;52.550;13.148;2023-10-13T02:10:10;16.00;;;9.13;;
6209;SDS011;3138;52.550;13.148;2023-10-13T02:12:37;15.03;;;8.80;;
6209;SDS011;3138;52.550;13.148;2023-10-13T02:15:10;20.73;;;9.30;;
6209;SDS011;3138;52.550;13.148;2023-10-13T02:17:45;17.40;;;10.03;;
6209;SDS011;3138;52.550;13.148;2023-10-13T02:20:16;17.23;;;10.10;;
6209;SDS011;3138;52.550;13.148;2023-10-13T02:22:43;25.53;;;9.23;;
6209;SDS011;3138;52.550;13.148;2023-10-13T02:25:14;14.77;;;10.13;;
6209;SDS011;3138;52.550;13.148;2023-10-13T02:27:42;19.77;;;10.50;;
6209;SDS011;3138;52.550;13.148;2023-10-13T02:30:14;20.37;;;11.37;;
6209;SDS011;3138;52.550;13.148;2023-10-13T02:32:40;22.13;;;12.00;;
6209;SDS011;3138;52.550;13.148;2023-10-13T02:35:08;30.40;;;11.50;;
6209;SDS011;3138;52.550;13.148;2023-10-13T02:37:40;21.00;;;11.73;;
6209;SDS011;3138;52.550;13.148;2023-10-13T02:40:09;30.27;;;12.07;;
6209;SDS011;3138;52.550;13.148;2023-10-13T02:42:36;28.67;;;13.87;;
6209;SDS011;3138;52.550;13.148;2023-10-13T02:45:04;18.03;;;12.17;;
6209;SDS011;3138;52.550;13.148;2023-10-13T02:47:34;27.30;;;14.63;;
6209;SDS011;3138;52.550;13.148;2023-10-13T02:50:01;28.77;;;14.37;;
6209;SDS011;3138;52.550;13.148;2023-10-13T02:52:36;22.37;;;13.17;;
6209;SDS011;3138;52.550;13.148;2023-10-13T02:55:06;25.57;;;15.30;;
6209;SDS011;3138;52.550;13.148;2023-10-13T02:57:35;33.10;;;15.40;;
6209;SDS011;3138;52.550;13.148;2023-10-13T03:00:02;31.83;;;13.83;;
6209;SDS011;3138;52.550;13.148;2023-10-13T03:02:38;27.33;;;16.07;;
6209;SDS011;3138;52.550;13.148;2023-10-13T03:05:09;31.30;;;14.60;;
6209;SDS011;3138;52.550;13.148;2023-10-13T03:07:38;32.30;;;15.60;;
6209;SDS011;3138;52.550;13.148;2023-10-13T03:10:08;30.27;;;15.83;;
6209;SDS011;3138;52.550;13.148;2023-10-13T03:12:35;22.97;;;16.43;;
6209;SDS011;3138;52.550;13.148;2023-10-13T03:15:02;25.40;;;16.10;;
6209;SDS011;3138;52.550;13.148;2023-10-13T03:17:40;31.70;;;17.20;;
6209;SDS011;3138;52.550;13.148;2023-10-13T03:20:09;30.33;;;16.30;;
6209;SDS011;3138;52.550;13.148;2023-10-13T03:22:36;28.53;;;17.13;;
6209;SDS011;3138;52.550;13.148;2023-10-13T03:25:04;33.93;;;16.50;;
6209;SDS011;3138;52.550;13.148;2023-10-13T03:27:32;33.33;;;15.37;;
6209;SDS011;3138;52.550;13.148;2023-10-13T03:30:06;37.87;;;17.17;;
6209;SDS011;3138;52.550;13.148;2023-10-13T03:32:40;34.70;;;16.87;;
6209;SDS011;3138;52.550;13.148;2023-10-13T03:35:12;29.70;;;18.20;;
6209;SDS011;3138;52.550;13.148;2023-10-13T03:37:48;34.63;;;19.03;;
6209;SDS011;3138;52.550;13.148;2023-10-13T03:40:15;47.63;;;19.30;;
6209;SDS011;3138;52.550;13.148;2023-10-13T03:42:57;32.97;;;19.50;;
6209;SDS011;3138;52.550;13.148;2023-10-13T03:45:29;43.27;;;19.10;;
6209;SDS011;3138;52.550;13.148;2023-10-13T03:48:03;33.00;;;19.67;;
6209;SDS011;3138;52.550;13.148;2023-10-13T03:50:34;33.47;;;19.63;;
6209;SDS011;3138;52.550;13.148;2023-10-13T03:53:01;34.93;;;18.57;;
6209;SDS011;3138;52.550;13.148;2023-10-13T03:55:31;37.77;;;19.47;;
6209;SDS011;3138;52.550;13.148;2023-10-13T03:58:00;52.50;;;19.93;;
6209;SDS011;3138;52.550;13.148;2023-10-13T04:00:28;39.53;;;20.43;;
6209;SDS011;3138;52.550;13.148;2023-10-13T04:02:56;48.57;;;22.03;;
6209;SDS011;3138;52.550;13.148;2023-10-13T04:05:35;45.23;;;20.33;;
6209;SDS011;3138;52.550;13.148;2023-10-13T04:08:07;30.13;;;18.67;;
6209;SDS011;3138;52.550;13.148;2023-10-13T04:10:52;41.33;;;20.87;;
6209;SDS011;3138;52.550;13.148;2023-10-13T04:13:37;44.67;;;22.27;;
6209;SDS011;3138;52.550;13.148;2023-10-13T04:16:29;41.87;;;22.60;;
6209;SDS011;3138;52.550;13.148;2023-10-13T04:19:03;33.53;;;20.17;;
6209;SDS011;3138;52.550;13.148;2023-10-13T04:21:36;45.77;;;22.53;;
6209;SDS011;3138;52.550;13.148;2023-10-13T04:24:07;33.40;;;21.77;;
6209;SDS011;3138;52.550;13.148;2023-10-13T04:26:48;33.37;;;19.57;;
6209;SDS011;3138;52.550;13.148;2023-10-13T04:29:30;38.03;;;21.67;;
6209;SDS011;3138;52.550;13.148;2023-10-13T04:32:24;45.40;;;23.80;;
6209;SDS011;3138;52.550;13.148;2023-10-13T04:34:55;47.80;;;22.70;;
6209;SDS011;3138;52.550;13.148;2023-10-13T04:37:24;38.33;;;21.80;;
6209;SDS011;3138;52.550;13.148;2023-10-13T04:39:55;39.33;;;22.43;;
6209;SDS011;3138;52.550;13.148;2023-10-13T04:42:35;46.43;;;23.03;;
6209;SDS011;3138;52.550;13.148;2023-10-13T04:45:16;46.17;;;23.80;;
6209;SDS011;3138;52.550;13.148;2023-10-13T04:48:02;42.57;;;21.47;;
6209;SDS011;3138;52.550;13.148;2023-10-13T04:50:44;51.47;;;21.33;;
6209;SDS011;3138;52.550;13.148;2023-10-13T04:53:12;37.43;;;22.00;;
6209;SDS011;3138;52.550;13.148;2023-10-13T04:55:53;54.87;;;20.87;;
6209;SDS011;3138;52.550;13.148;2023-10-13T04:58:53;40.23;;;21.33;;
6209;SDS011;3138;52.550;13.148;2023-10-13T05:01:38;42.97;;;21.33;;
6209;SDS011;3138;52.550;13.148;2023-10-13T05:04:23;35.30;;;22.07;;
6209;SDS011;3138;52.550;13.148;2023-10-13T05:07:03;38.23;;;21.57;;
6209;SDS011;3138;52.550;13.148;2023-10-13T05:09:48;46.77;;;24.07;;
6209;SDS011;3138;52.550;13.148;2023-10-13T05:12:32;36.77;;;21.30;;
6209;SDS011;3138;52.550;13.148;2023-10-13T05:15:16;47.43;;;20.57;;
6209;SDS011;3138;52.550;13.148;2023-10-13T05:18:00;47.17;;;21.80;;
6209;SDS011;3138;52.550;13.148;2023-10-13T05:20:42;40.70;;;21.87;;
6209;SDS011;3138;52.550;13.148;2023-10-13T05:23:26;33.83;;;22.07;;
6209;SDS011;3138;52.550;13.148;2023-10-13T05:26:11;30.93;;;22.87;;
6209;SDS011;3138;52.550;13.148;2023-10-13T05:28:55;40.93;;;22.17;;
6209;SDS011;3138;52.550;13.148;2023-10-13T05:31:39;36.13;;;23.23;;
6209;SDS011;3138;52.550;13.148;2023-10-13T05:34:23;41.40;;;22.43;;
6209;SDS011;3138;52.550;13.148;2023-10-13T05:37:09;32.57;;;21.37;;
6209;SDS011;3138;52.550;13.148;2023-10-13T05:39:53;45.00;;;22.07;;
6209;SDS011;3138;52.550;13.148;2023-10-13T05:42:37;40.80;;;21.77;;
6209;SDS011;3138;52.550;13.148;2023-10-13T05:45:29;33.87;;;21.50;;
6209;SDS011;3138;52.550;13.148;2023-10-13T05:48:23;51.47;;;23.77;;
6209;SDS011;3138;52.550;13.148;2023-10-13T05:51:06;34.80;;;21.00;;
6209;SDS011;3138;52.550;13.148;2023-10-13T05:53:52;40.23;;;21.03;;
6209;SDS011;3138;52.550;13.148;2023-10-13T05:56:36;37.47;;;21.10;;
6209;SDS011;3138;52.550;13.148;2023-10-13T05:59:32;29.83;;;19.83;;
6209;SDS011;3138;52.550;13.148;2023-10-13T06:02:18;31.23;;;19.03;;
6209;SDS011;3138;52.550;13.148;2023-10-13T06:05:04;38.60;;;20.10;;
6209;SDS011;3138;52.550;13.148;2023-10-13T06:07:49;32.80;;;20.50;;
6209;SDS011;3138;52.550;13.148;2023-10-13T06:10:35;36.40;;;19.73;;
6209;SDS011;3138;52.550;13.148;2023-10-13T06:13:20;49.27;;;19.80;;
6209;SDS011;3138;52.550;13.148;2023-10-13T06:16:05;37.13;;;20.20;;
6209;SDS011;3138;52.550;13.148;2023-10-13T06:18:49;44.17;;;21.10;;
6209;SDS011;3138;52.550;13.148;2023-10-13T06:21:33;40.57;;;18.73;;
6209;SDS011;3138;52.550;13.148;2023-10-13T06:24:18;48.57;;;26.23;;
6209;SDS011;3138;52.550;13.148;2023-10-13T06:27:03;54.10;;;35.83;;
6209;SDS011;3138;52.550;13.148;2023-10-13T06:29:48;34.07;;;18.33;;
6209;SDS011;3138;52.550;13.148;2023-10-13T06:32:15;29.80;;;19.20;;
6209;SDS011;3138;52.550;13.148;2023-10-13T06:34:42;31.67;;;18.00;;
6209;SDS011;3138;52.550;13.148;2023-10-13T06:37:10;32.27;;;18.70;;
6209;SDS011;3138;52.550;13.148;2023-10-13T06:39:48;40.87;;;19.10;;
6209;SDS011;3138;52.550;13.148;2023-10-13T06:42:16;32.00;;;16.63;;
6209;SDS011;3138;52.550;13.148;2023-10-13T06:44:44;38.40;;;19.10;;
6209;SDS011;3138;52.550;13.148;2023-10-13T06:47:11;30.23;;;15.83;;
6209;SDS011;3138;52.550;13.148;2023-10-13T06:49:39;42.83;;;18.10;;
6209;SDS011;3138;52.550;13.148;2023-10-13T06:52:08;25.43;;;17.57;;
6209;SDS011;3138;52.550;13.148;2023-10-13T06:54:36;31.90;;;18.03;;
6209;SDS011;3138;52.550;13.148;2023-10-13T06:57:04;24.80;;;15.90;;
6209;SDS011;3138;52.550;13.148;2023-10-13T06:59:33;29.33;;;16.80;;
6209;SDS011;3138;52.550;13.148;2023-10-13T07:02:05;24.50;;;15.83;;
6209;SDS011;3138;52.550;13.148;2023-10-13T07:04:34;21.83;;;14.33;;
6209;SDS011;3138;52.550;13.148;2023-10-13T07:07:04;26.67;;;15.43;;
6209;SDS011;3138;52.550;13.148;2023-10-13T07:09:35;23.87;;;13.97;;
6209;SDS011;3138;52.550;13.148;2023-10-13T07:12:14;22.20;;;14.73;;
6209;SDS011;3138;52.550;13.148;2023-10-13T07:14:48;23.47;;;15.17;;
6209;SDS011;3138;52.550;13.148;2023-10-13T07:17:18;29.00;;;15.23;;
6209;SDS011;3138;52.550;13.148;2023-10-13T07:19:50;25.03;;;14.80;;
6209;SDS011;3138;52.550;13.148;2023-10-13T07:22:20;27.37;;;14.73;;
6209;SDS011;3138;52.550;13.148;2023-10-13T07:24:48;72.87;;;41.77;;
6209;SDS011;3138;52.550;13.148;2023-10-13T07:27:17;55.43;;;33.37;;
6209;SDS011;3138;52.550;13.148;2023-10-13T07:29:50;29.73;;;18.50;;
6209;SDS011;3138;52.550;13.148;2023-10-13T07:32:31;22.73;;;12.90;;
6209;SDS011;3138;52.550;13.148;2023-10-13T07:34:59;29.87;;;12.10;;
6209;SDS011;3138;52.550;13.148;2023-10-13T07:37:34;32.77;;;13.37;;
6209;SDS011;3138;52.550;13.148;2023-10-13T07:40:01;22.03;;;12.20;;
6209;SDS011;3138;52.550;13.148;2023-10-13T07:42:37;22.40;;;10.57;;
6209;SDS011;3138;52.550;13.148;2023-10-13T07:45:07;28.67;;;12.87;;
6209;SDS011;3138;52.550;13.148;2023-10-13T07:47:36;23.63;;;11.60;;
6209;SDS011;3138;52.550;13.148;2023-10-13T07:50:05;19.23;;;12.23;;
6209;SDS011;3138;52.550;13.148;2023-10-13T07:52:34;16.63;;;11.10;;
6209;SDS011;3138;52.550;13.148;2023-10-13T07:55:19;20.93;;;11.27;;
6209;SDS011;3138;52.550;13.148;2023-10-13T07:57:46;22.13;;;10.90;;
6209;SDS011;3138;52.550;13.148;2023-10-13T08:00:21;31.53;;;9.73;;
6209;SDS011;3138;52.550;13.148;2023-10-13T08:02:58;23.20;;;11.30;;
6209;SDS011;3138;52.550;13.148;2023-10-13T08:05:34;19.27;;;11.30;;
6209;SDS011;3138;52.550;13.148;2023-10-13T08:08:21;16.10;;;10.50;;
6209;SDS011;3138;52.550;13.148;2023-10-13T08:10:50;14.00;;;9.60;;
6209;SDS011;3138;52.550;13.148;2023-10-13T08:13:20;13.60;;;9.77;;
6209;SDS011;3138;52.550;13.148;2023-10-13T08:15:49;23.57;;;10.57;;
6209;SDS011;3138;52.550;13.148;2023-10-13T08:18:18;13.20;;;9.53;;
6209;SDS011;3138;52.550;13.148;2023-10-13T08:20:55;13.73;;;9.80;;
6209;SDS011;3138;52.550;13.148;2023-10-13T08:23:28;12.90;;;8.93;;
6209;SDS011;3138;52.550;13.148;2023-10-13T08:26:20;16.23;;;8.30;;
6209;SDS011;3138;52.550;13.148;2023-10-13T08:29:17;22.00;;;8.83;;
6209;SDS011;3138;52.550;13.148;2023-10-13T08:32:03;20.90;;;9.53;;
6209;SDS011;3138;52.550;13.148;2023-10-13T08:35:01;14.70;;;9.30;;
6209;SDS011;3138;52.550;13.148;2023-10-13T08:37:48;12.20;;;7.63;;
6209;SDS011;3138;52.550;13.148;2023-10-13T08:40:26;12.03;;;8.50;;
6209;SDS011;3138;52.550;13.148;2023-10-13T08:43:11;13.53;;;7.80;;
6209;SDS011;3138;52.550;13.148;2023-10-13T08:45:39;17.40;;;7.87;;
6209;SDS011;3138;52.550;13.148;2023-10-13T08:48:26;14.33;;;8.43;;
6209;SDS011;3138;52.550;13.148;2023-10-13T08:50:59;20.40;;;8.60;;
6209;SDS011;3138;52.550;13.148;2023-10-13T08:53:36;19.53;;;7.90;;
6209;SDS011;3138;52.550;13.148;2023-10-13T08:56:11;12.00;;;7.60;;
6209;SDS011;3138;52.550;13.148;2023-10-13T08:58:43;11.90;;;7.40;;
6209;SDS011;3138;52.550;13.148;2023-10-13T09:01:31;13.00;;;8.13;;
6209;SDS011;3138;52.550;13.148;2023-10-13T09:04:04;11.20;;;7.20;;
6209;SDS011;3138;52.550;13.148;2023-10-13T09:06:47;9.57;;;7.80;;
6209;SDS011;3138;52.550;13.148;2023-10-13T09:09:31;17.77;;;7.10;;
6209;SDS011;3138;52.550;13.148;2023-10-13T09:12:10;15.23;;;7.90;;
6209;SDS011;3138;52.550;13.148;2023-10-13T09:14:39;13.63;;;7.23;;
6209;SDS011;3138;52.550;13.148;2023-10-13T09:17:09;10.50;;;6.93;;
6209;SDS011;3138;52.550;13.148;2023-10-13T09:19:46;13.50;;;6.93;;
6209;SDS011;3138;52.550;13.148;2023-10-13T09:22:19;15.40;;;7.20;;
6209;SDS011;3138;52.550;13.148;2023-10-13T09:24:51;12.27;;;7.07;;
6209;SDS011;3138;52.550;13.148;2023-10-13T09:27:18;15.07;;;7.37;;
6209;SDS011;3138;52.550;13.148;2023-10-13T09:29:54;14.50;;;8.17;;
6209;SDS011;3138;52.550;13.148;2023-10-13T09:32:20;17.77;;;8.33;;
6209;SDS011;3138;52.550;13.148;2023-10-13T09:34:48;13.70;;;7.80;;
6209;SDS011;3138;52.550;13.148;2023-10-13T09:37:18;9.30;;;6.90;;
6209;SDS011;3138;52.550;13.148;2023-10-13T09:39:47;20.07;;;7.83;;
6209;SDS011;3138;52.550;13.148;2023-10-13T09:42:18;14.10;;;8.50;;
6209;SDS011;3138;52.550;13.148;2023-10-13T09:44:45;13.40;;;8.50;;
6209;SDS011;3138;52.550;13.148;2023-10-13T09:47:21;16.50;;;7.30;;
6209;SDS011;3138;52.550;13.148;2023-10-13T09:49:59;14.63;;;9.00;;
6209;SDS011;3138;52.550;13.148;2023-10-13T09:52:30;21.73;;;8.47;;
6209;SDS011;3138;52.550;13.148;2023-10-13T09:55:10;11.83;;;8.23;;
6209;SDS011;3138;52.550;13.148;2023-10-13T09:57:43;12.20;;;7.57;;
6209;SDS011;3138;52.550;13.148;2023-10-13T10:00:15;16.70;;;8.03;;
6209;SDS011;3138;52.550;13.148;2023-10-13T10:03:02;11.10;;;8.27;;
6209;SDS011;3138;52.550;13.148;2023-10-13T10:05:41;10.50;;;8.10;;
6209;SDS011;3138;52.550;13.148;2023-10-13T10:08:22;13.03;;;6.90;;
6209;SDS011;3138;52.550;13.148;2023-10-13T10:10:59;16.30;;;7.47;;
6209;SDS011;3138;52.550;13.148;2023-10-13T10:13:34;11.13;;;7.60;;
6209;SDS011;3138;52.550;13.148;2023-10-13T10:16:07;12.57;;;8.77;;
6209;SDS011;3138;52.550;13.148;2023-10-13T10:18:40;12.80;;;7.37;;
6209;SDS011;3138;52.550;13.148;2023-10-13T10:21:09;15.40;;;8.20;;
6209;SDS011;3138;52.550;13.148;2023-10-13T10:23:37;16.80;;;7.90;;
6209;SDS011;3138;52.550;13.148;2023-10-13T10:26:11;8.60;;;7.70;;
6209;SDS011;3138;52.550;13.148;2023-10-13T10:28:41;11.13;;;7.33;;
6209;SDS011;3138;52.550;13.148;2023-10-13T10:31:09;8.37;;;7.07;;
6209;SDS011;3138;52.550;13.148;2023-10-13T10:33:37;8.87;;;7.20;;
6209;SDS011;3138;52.550;13.148;2023-10-13T10:36:05;13.47;;;7.80;;
6209;SDS011;3138;52.550;13.148;2023-10-13T10:38:33;11.50;;;7.20;;
6209;SDS011;3138;52.550;13.148;2023-10-13T10:41:03;11.03;;;7.40;;
6209;SDS011;3138;52.550;13.148;2023-10-13T10:43:36;11.67;;;7.73;;
6209;SDS011;3138;52.550;13.148;2023-10-13T10:46:08;14.13;;;7.90;;
6209;SDS011;3138;52.550;13.148;2023-10-13T10:48:36;20.53;;;7.47;;
6209;SDS011;3138;52.550;13.148;2023-10-13T10:51:07;9.70;;;7.43;;
6209;SDS011;3138;52.550;13.148;2023-10-13T10:53:47;12.00;;;8.00;;
6209;SDS011;3138;52.550;13.148;2023-10-13T10:56:15;10.90;;;8.77;;
6209;SDS011;3138;52.550;13.148;2023-10-13T10:58:50;11.27;;;7.50;;
6209;SDS011;3138;52.550;13.148;2023-10-13T11:01:21;11.83;;;7.93;;
6209;SDS011;3138;52.550;13.148;2023-10-13T11:03:54;15.60;;;8.17;;
6209;SDS011;3138;52.550;13.148;2023-10-13T11:06:23;17.47;;;7.33;;
6209;SDS011;3138;52.550;13.148;2023-10-13T11:09:04;12.93;;;6.87;;
6209;SDS011;3138;52.550;13.148;2023-10-13T11:11:43;25.47;;;8.27;;
6209;SDS011;3138;52.550;13.148;2023-10-13T11:14:19;12.53;;;6.70;;
6209;SDS011;3138;52.550;13.148;2023-10-13T11:16:49;15.37;;;8.13;;
6209;SDS011;3138;52.550;13.148;2023-10-13T11:19:19;12.87;;;7.70;;
6209;SDS011;3138;52.550;13.148;2023-10-13T11:21:53;11.80;;;7.13;;
6209;SDS011;3138;52.550;13.148;2023-10-13T11:24:22;12.53;;;7.70;;
6209;SDS011;3138;52.550;13.148;2023-10-13T11:26:49;9.63;;;7.53;;
6209;SDS011;3138;52.550;13.148;2023-10-13T11:29:17;15.63;;;9.10;;
6209;SDS011;3138;52.550;13.148;2023-10-13T11:31:48;17.47;;;8.40;;
6209;SDS011;3138;52.550;13.148;2023-10-13T11:34:23;20.07;;;7.27;;
6209;SDS011;3138;52.550;13.148;2023-10-13T11:36:50;20.40;;;7.20;;
6209;SDS011;3138;52.550;13.148;2023-10-13T11:39:17;17.03;;;7.50;;
6209;SDS011;3138;52.550;13.148;2023-10-13T11:41:51;15.80;;;8.30;;
6209;SDS011;3138;52.550;13.148;2023-10-13T11:44:20;12.77;;;7.60;;
6209;SDS011;3138;52.550;13.148;2023-10-13T11:46:56;18.83;;;7.70;;
6209;SDS011;3138;52.550;13.148;2023-10-13T11:49:32;29.63;;;7.97;;
6209;SDS011;3138;52.550;13.148;2023-10-13T11:52:02;11.87;;;6.97;;
6209;SDS011;3138;52.550;13.148;2023-10-13T11:54:42;10.17;;;6.23;;
6209;SDS011;3138;52.550;13.148;2023-10-13T11:57:10;10.30;;;6.87;;
6209;SDS011;3138;52.550;13.148;2023-10-13T11:59:37;17.87;;;6.63;;
6209;SDS011;3138;52.550;13.148;2023-10-13T12:02:11;15.07;;;6.80;;
6209;SDS011;3138;52.550;13.148;2023-10-13T12:04:55;15.10;;;6.83;;
6209;SDS011;3138;52.550;13.148;2023-10-13T12:07:24;10.60;;;5.70;;
6209;SDS011;3138;52.550;13.148;2023-10-13T12:10:05;13.77;;;6.00;;
6209;SDS011;3138;52.550;13.148;2023-10-13T12:12:41;11.13;;;6.97;;
6209;SDS011;3138;52.550;13.148;2023-10-13T12:15:11;16.83;;;7.37;;
6209;SDS011;3138;52.550;13.148;2023-10-13T12:17:50;8.63;;;6.07;;
6209;SDS011;3138;52.550;13.148;2023-10-13T12:20:17;21.10;;;7.83;;
6209;SDS011;3138;52.550;13.148;2023-10-13T12:22:57;14.43;;;6.83;;
6209;SDS011;3138;52.550;13.148;2023-10-13T12:25:35;13.27;;;8.80;;
6209;SDS011;3138;52.550;13.148;2023-10-13T12:28:22;17.73;;;6.87;;
6209;SDS011;3138;52.550;13.148;2023-10-13T12:30:51;19.30;;;7.03;;
6209;SDS011;3138;52.550;13.148;2023-10-13T12:33:22;21.97;;;7.20;;
6209;SDS011;3138;52.550;13.148;2023-10-13T12:35:57;22.03;;;8.00;;
6209;SDS011;3138;52.550;13.148;2023-10-13T12:38:31;17.07;;;7.10;;
6209;SDS011;3138;52.550;13.148;2023-10-13T12:41:36;19.63;;;7.50;;
6209;SDS011;3138;52.550;13.148;2023-10-13T12:44:22;21.50;;;7.27;;
6209;SDS011;3138;52.550;13.148;2023-10-13T12:47:06;16.60;;;6.57;;
6209;SDS011;3138;52.550;13.148;2023-10-13T12:49:51;16.63;;;7.00;;
6209;SDS011;3138;52.550;13.148;2023-10-13T12:52:40;19.67;;;7.43;;
6209;SDS011;3138;52.550;13.148;2023-10-13T12:55:10;20.53;;;6.70;;
6209;SDS011;3138;52.550;13.148;2023-10-13T12:57:38;18.37;;;6.77;;
6209;SDS011;3138;52.550;13.148;2023-10-13T13:00:11;17.60;;;7.30;;
6209;SDS011;3138;52.550;13.148;2023-10-13T13:02:50;16.10;;;6.80;;
6209;SDS011;3138;52.550;13.148;2023-10-13T13:05:20;16.67;;;6.60;;
6209;SDS011;3138;52.550;13.148;2023-10-13T13:07:53;15.60;;;7.00;;
6209;SDS011;3138;52.550;13.148;2023-10-13T13:10:20;29.97;;;7.23;;
6209;SDS011;3138;52.550;13.148;2023-10-13T13:13:00;25.23;;;7.30;;
6209;SDS011;3138;52.550;13.148;2023-10-13T13:15:29;26.43;;;8.53;;
6209;SDS011;3138;52.550;13.148;2023-10-13T13:17:56;14.03;;;6.23;;
6209;SDS011;3138;52.550;13.148;2023-10-13T13:20:23;25.00;;;7.83;;
6209;SDS011;3138;52.550;13.148;2023-10-13T13:22:54;40.13;;;7.23;;
6209;SDS011;3138;52.550;13.148;2023-10-13T13:25:27;27.73;;;7.10;;
6209;SDS011;3138;52.550;13.148;2023-10-13T13:27:55;26.53;;;6.90;;
6209;SDS011;3138;52.550;13.148;2023-10-13T13:30:23;21.30;;;6.20;;
6209;SDS011;3138;52.550;13.148;2023-10-13T13:32:58;16.73;;;6.17;;
6209;SDS011;3138;52.550;13.148;2023-10-13T13:35:29;17.47;;;6.90;;
6209;SDS011;3138;52.550;13.148;2023-10-13T13:37:59;17.80;;;6.37;;
6209;SDS011;3138;52.550;13.148;2023-10-13T13:40:36;23.77;;;7.53;;
6209;SDS011;3138;52.550;13.148;2023-10-13T13:43:03;18.83;;;7.53;;
6209;SDS011;3138;52.550;13.148;2023-10-13T13:45:33;31.73;;;8.63;;
6209;SDS011;3138;52.550;13.148;2023-10-13T13:48:08;28.93;;;7.87;;
6209;SDS011;3138;52.550;13.148;2023-10-13T13:50:40;23.10;;;6.70;;
6209;SDS011;3138;52.550;13.148;2023-10-13T13:53:09;14.73;;;6.03;;
6209;SDS011;3138;52.550;13.148;2023-10-13T13:55:36;15.40;;;6.83;;
6209;SDS011;3138;52.550;13.148;2023-10-13T13:58:05;24.37;;;6.50;;
6209;SDS011;3138;52.550;13.148;2023-10-13T14:00:33;21.13;;;7.67;;
6209;SDS011;3138;52.550;13.148;2023-10-13T14:03:03;17.33;;;6.20;;
6209;SDS011;3138;52.550;13.148;2023-10-13T14:05:32;23.10;;;7.80;;
6209;SDS011;3138;52.550;13.148;2023-10-13T14:07:59;20.80;;;6.53;;
6209;SDS011;3138;52.550;13.148;2023-10-13T14:10:25;19.73;;;7.20;;
6209;SDS011;3138;52.550;13.148;2023-10-13T14:13:18;26.87;;;7.20;;
6209;SDS011;3138;52.550;13.148;2023-10-13T14:15:47;24.37;;;7.43;;
6209;SDS011;3138;52.550;13.148;2023-10-13T14:18:14;25.70;;;8.27;;
6209;SDS011;3138;52.550;13.148;2023-10-13T14:20:42;36.10;;;8.07;;
6209;SDS011;3138;52.550;13.148;2023-10-13T14:23:09;24.37;;;7.67;;
6209;SDS011;3138;52.550;13.148;2023-10-13T14:25:37;12.53;;;7.03;;
6209;SDS011;3138;52.550;13.148;2023-10-13T14:28:09;19.60;;;7.40;;
6209;SDS011;3138;52.550;13.148;2023-10-13T14:30:36;17.53;;;5.90;;
6209;SDS011;3138;52.550;13.148;2023-10-13T14:33:03;27.13;;;7.00;;
6209;SDS011;3138;52.550;13.148;2023-10-13T14:35:36;9.40;;;5.07;;
6209;SDS011;3138;52.550;13.148;2023-10-13T14:38:05;37.87;;;7.83;;
6209;SDS011;3138;52.550;13.148;2023-10-13T14:40:32;19.23;;;7.60;;
6209;SDS011;3138;52.550;13.148;2023-10-13T14:42:59;28.50;;;6.97;;
6209;SDS011;3138;52.550;13.148;2023-10-13T14:45:26;28.57;;;6.97;;
6209;SDS011;3138;52.550;13.148;2023-10-13T14:47:53;16.50;;;7.13;;
6209;SDS011;3138;52.550;13.148;2023-10-13T14:50:20;19.87;;;7.70;;
6209;SDS011;3138;52.550;13.148;2023-10-13T14:52:47;22.20;;;7.13;;
6209;SDS011;3138;52.550;13.148;2023-10-13T14:55:15;32.47;;;8.43;;
6209;SDS011;3138;52.550;13.148;2023-10-13T14:57:45;35.83;;;7.77;;
6209;SDS011;3138;52.550;13.148;2023-10-13T15:00:15;17.97;;;6.43;;
6209;SDS011;3138;52.550;13.148;2023-10-13T15:02:49;31.07;;;7.67;;
6209;SDS011;3138;52.550;13.148;2023-10-13T15:05:17;9.50;;;5.83;;
6209;SDS011;3138;52.550;13.148;2023-10-13T15:07:44;19.80;;;7.10;;
6209;SDS011;3138;52.550;13.148;2023-10-13T15:10:11;21.00;;;6.03;;
6209;SDS011;3138;52.550;13.148;2023-10-13T15:12:43;23.07;;;7.33;;
6209;SDS011;3138;52.550;13.148;2023-10-13T15:15:10;30.90;;;8.40;;
6209;SDS011;3138;52.550;13.148;2023-10-13T15:17:41;22.97;;;8.50;;
6209;SDS011;3138;52.550;13.148;2023-10-13T15:20:08;34.80;;;8.27;;
6209;SDS011;3138;52.550;13.148;2023-10-13T15:22:40;25.73;;;7.47;;